Terminal Aerodrome Forecast
Issued by NWS Lake Charles, LA

Home | Current Version | Previous Version | Text Only | Print | Product List | Glossary On
Versions: 1 2 3 4 5 6 7 8 9 10 11 12 13 14 15 16 17 18 19 20 21 22 23 24
000
FTUS44 KLCH 242333
TAFBPT
TAF
KBPT 242333Z 2500/2524 17009KT P6SM VCSH BKN005 OVC015
     FM250300 17006KT 3SM BR OVC004
     FM250700 VRB05KT 2SM BR OVC004
     FM251000 15006KT 3SM BR OVC004
     FM251500 17012KT P6SM BKN020 BKN035
     FM252100 21007KT P6SM BKN035=

USA.gov is the U.S. government's official web portal to all federal, state and local government web resources and services.